Time;durP1;ratioP1;P1;durP2;ratioP2;P2;SDS_P1;SDS_P2;PMS_P1;PMS_P2;Temp;Humidity;BMP_temperature;BMP_pressure;BME280_temperature;BME280_humidity;BME280_pressure;Samples;Min_cycle;Max_cycle;Signal;HPM_P1;HPM_P2
2023/05/30 00:01:38;;;;;;;17.42;7.30;;;;;;;16.61;100.00;100179.38;4876939;29;20104;-70
2023/05/30 00:04:04;;;;;;;14.57;7.72;;;;;;;16.51;100.00;100182.78;4876636;29;20049;-70
2023/05/30 00:06:30;;;;;;;17.38;7.82;;;;;;;16.53;100.00;100188.88;4876733;29;20424;-72
2023/05/30 00:08:55;;;;;;;16.95;7.85;;;;;;;16.40;100.00;100179.19;4876616;29;20037;-69
2023/05/30 00:11:23;;;;;;;11.43;7.53;;;;;;;16.43;100.00;100187.03;4876405;29;20036;-70
2023/05/30 00:13:50;;;;;;;14.95;8.60;;;;;;;16.38;100.00;100180.94;4876460;29;20037;-70
2023/05/30 00:16:19;;;;;;;14.15;8.27;;;;;;;16.28;100.00;100182.56;4876986;29;20060;-68
2023/05/30 00:18:46;;;;;;;12.15;8.30;;;;;;;15.88;100.00;100109.31;4876466;29;20033;-71
2023/05/30 00:21:32;;;;;;;15.02;8.45;;;;;;;16.40;100.00;100184.41;4876001;29;20143;-70
2023/05/30 00:23:58;;;;;;;17.70;8.13;;;;;;;16.38;100.00;100191.34;4855224;29;20064;-71
2023/05/30 00:26:26;;;;;;;20.30;8.65;;;;;;;16.30;100.00;100179.13;4855041;29;20045;-69
2023/05/30 00:28:51;;;;;;;17.88;8.70;;;;;;;16.27;100.00;100178.22;4855424;29;20052;-72
2023/05/30 00:31:18;;;;;;;11.95;7.97;;;;;;;15.99;100.00;100112.88;4855635;29;20041;-71
2023/05/30 00:33:44;;;;;;;12.52;8.48;;;;;;;16.41;100.00;100171.41;4839812;29;20504;-73
2023/05/30 00:36:09;;;;;;;16.23;9.25;;;;;;;16.33;100.00;100153.09;4855156;29;20041;-68
2023/05/30 00:38:35;;;;;;;19.05;9.57;;;;;;;16.49;100.00;100163.66;4859212;29;20137;-69
2023/05/30 00:41:02;;;;;;;18.48;9.27;;;;;;;16.63;100.00;100163.75;4855140;29;20472;-70
2023/05/30 00:43:28;;;;;;;15.52;8.82;;;;;;;16.76;100.00;100173.41;4855324;29;20777;-72
2023/05/30 00:45:54;;;;;;;19.13;8.82;;;;;;;16.72;100.00;100161.19;4855245;29;20042;-71
2023/05/30 00:48:20;;;;;;;22.63;8.60;;;;;;;16.76;100.00;100175.13;4854651;29;20166;-68
2023/05/30 00:50:46;;;;;;;13.32;8.95;;;;;;;16.84;100.00;100177.81;4855412;29;20216;-70
2023/05/30 00:53:12;;;;;;;12.65;9.10;;;;;;;16.81;100.00;100171.69;4854464;29;20089;-70
2023/05/30 00:55:38;;;;;;;15.43;8.48;;;;;;;16.92;100.00;100179.63;4871578;29;20041;-68
2023/05/30 00:58:03;;;;;;;15.35;8.43;;;;;;;16.95;100.00;100182.25;4876020;29;20053;-72
2023/05/30 01:00:30;;;;;;;13.02;8.60;;;;;;;17.05;100.00;100184.91;4876068;29;20092;-69
2023/05/30 01:03:00;;;;;;;15.88;8.80;;;;;;;17.08;100.00;100185.78;4875838;29;20620;-68
2023/05/30 01:05:27;;;;;;;22.67;8.23;;;;;;;16.93;100.00;100162.22;4875374;29;20068;-72
2023/05/30 01:07:53;;;;;;;14.40;8.15;;;;;;;17.05;100.00;100180.56;4876280;29;20027;-70
2023/05/30 01:10:19;;;;;;;14.45;8.60;;;;;;;16.95;100.00;100171.81;4875872;29;20163;-71
2023/05/30 01:13:12;;;;;;;10.88;7.55;;;;;;;16.97;100.00;100190.97;4876266;29;20513;-71
2023/05/30 01:15:54;;;;;;;12.82;7.63;;;;;;;17.01;100.00;100190.97;4875985;29;20073;-67
2023/05/30 01:18:44;;;;;;;13.35;7.97;;;;;;;17.05;100.00;100184.91;4875849;29;20094;-70
2023/05/30 01:21:12;;;;;;;12.23;7.72;;;;;;;17.07;100.00;100184.06;4876002;29;20470;-71
2023/05/30 01:23:46;;;;;;;11.43;7.93;;;;;;;17.09;100.00;100189.28;4858176;29;20092;-70
2023/05/30 01:26:39;;;;;;;10.88;7.90;;;;;;;17.11;100.00;100195.38;4875600;29;20048;-70
2023/05/30 01:29:06;;;;;;;15.07;7.70;;;;;;;17.13;100.00;100191.03;4882270;29;20571;-73
2023/05/30 01:31:33;;;;;;;14.18;7.78;;;;;;;17.29;100.00;100200.69;4881815;29;20403;-69
2023/05/30 01:34:00;;;;;;;16.23;7.95;;;;;;;17.34;100.00;100189.41;4875010;29;20044;-71
2023/05/30 01:36:28;;;;;;;12.55;7.45;;;;;;;17.43;100.00;100194.66;4875890;29;20831;-72
2023/05/30 01:38:54;;;;;;;14.48;7.80;;;;;;;17.50;100.00;100200.78;4876233;29;20037;-70
2023/05/30 01:41:56;;;;;;;11.57;7.13;;;;;;;17.46;100.00;100192.06;4879632;29;20043;-69
2023/05/30 01:44:38;;;;;;;12.85;8.15;;;;;;;17.52;100.00;100202.53;4895035;29;20068;-69
2023/05/30 01:47:18;;;;;;;13.90;7.10;;;;;;;17.55;100.00;100196.47;4894751;29;20056;-72
2023/05/30 01:49:55;;;;;;;9.27;7.53;;;;;;;17.52;100.00;100194.72;4894724;29;20386;-71
2023/05/30 01:52:24;;;;;;;18.08;8.30;;;;;;;17.45;100.00;100200.75;4880134;29;20036;-70
2023/05/30 01:54:56;;;;;;;12.65;7.82;;;;;;;17.54;100.00;100205.16;4876166;29;20116;-70
2023/05/30 01:57:24;;;;;;;11.13;7.53;;;;;;;17.00;100.00;100110.97;4876036;29;20065;-69
2023/05/30 01:59:50;;;;;;;12.48;7.28;;;;;;;17.54;100.00;100212.97;4878742;29;20089;-72
2023/05/30 02:02:16;;;;;;;15.13;7.25;;;;;;;17.56;100.00;100212.13;4879554;29;20112;-72
2023/05/30 02:04:42;;;;;;;12.38;7.40;;;;;;;17.02;100.00;100132.72;4879713;29;20025;-69
2023/05/30 02:07:08;;;;;;;8.48;6.60;;;;;;;17.30;100.00;100188.53;4878523;29;20037;-71
2023/05/30 02:09:34;;;;;;;15.25;6.70;;;;;;;17.41;100.00;100214.69;4878002;29;20029;-72
2023/05/30 02:12:02;;;;;;;13.35;6.78;;;;;;;17.39;100.00;100224.22;4880888;29;20467;-71
2023/05/30 02:14:29;;;;;;;10.77;6.70;;;;;;;17.40;100.00;100220.75;4896441;29;20029;-69
2023/05/30 02:16:55;;;;;;;14.88;6.63;;;;;;;17.40;100.00;100219.00;4897913;29;20491;-71
2023/05/30 02:19:20;;;;;;;12.70;6.80;;;;;;;17.43;100.00;100220.75;4897922;29;20033;-71
2023/05/30 02:21:46;;;;;;;10.35;5.97;;;;;;;17.46;100.00;100216.44;4898029;29;20024;-70
2023/05/30 02:24:12;;;;;;;13.73;6.25;;;;;;;17.49;100.00;100215.56;4897799;29;20032;-72
2023/05/30 02:26:39;;;;;;;10.98;6.50;;;;;;;17.27;100.00;100210.25;4897957;29;20021;-69
2023/05/30 02:29:04;;;;;;;10.02;5.78;;;;;;;17.22;100.00;100213.69;4894298;29;20043;-70
2023/05/30 02:31:30;;;;;;;13.57;6.05;;;;;;;16.92;100.00;100210.91;4880707;29;20028;-70
2023/05/30 02:33:55;;;;;;;15.10;6.35;;;;;;;16.89;100.00;100213.47;4897480;29;20021;-69
2023/05/30 02:36:21;;;;;;;12.10;6.43;;;;;;;16.90;100.00;100210.00;4897665;29;20032;-68
2023/05/30 02:38:47;;;;;;;14.35;6.68;;;;;;;16.98;100.00;100220.50;4897350;29;20060;-71
2023/05/30 02:41:14;;;;;;;11.23;6.30;;;;;;;16.93;100.00;100210.03;4897765;29;20063;-72
2023/05/30 02:43:40;;;;;;;9.75;6.90;;;;;;;16.90;100.00;100209.13;4893062;29;20037;-69
2023/05/30 02:46:06;;;;;;;11.35;6.07;;;;;;;17.04;100.00;100215.31;4897565;29;20040;-72
2023/05/30 02:48:32;;;;;;;15.35;6.57;;;;;;;17.05;100.00;100222.28;4897482;29;20399;-72
2023/05/30 02:50:58;;;;;;;11.02;5.93;;;;;;;17.06;100.00;100221.44;4893307;29;20037;-70
2023/05/30 02:53:24;;;;;;;19.67;7.15;;;;;;;17.06;100.00;100224.03;4878754;29;20029;-70
2023/05/30 02:55:50;;;;;;;12.40;6.18;;;;;;;16.72;100.00;100170.75;4878409;29;20033;-73
2023/05/30 02:58:16;;;;;;;9.32;5.72;;;;;;;17.09;100.00;100223.19;4893399;29;20426;-69
2023/05/30 03:00:42;;;;;;;13.23;6.60;;;;;;;17.18;100.00;100231.06;4897180;29;20495;-71
2023/05/30 03:03:09;;;;;;;14.10;6.82;;;;;;;17.26;100.00;100233.72;4896898;29;20029;-69
2023/05/30 03:05:35;;;;;;;9.13;6.68;;;;;;;17.30;100.00;100228.50;4897046;29;20454;-71
2023/05/30 03:08:02;;;;;;;13.57;6.30;;;;;;;17.34;100.00;100236.38;4897237;29;20032;-69
2023/05/30 03:10:27;;;;;;;9.43;6.30;;;;;;;17.25;100.00;100227.63;4895471;29;20569;-72
2023/05/30 03:12:53;;;;;;;9.48;6.47;;;;;;;17.04;100.00;100230.97;4896717;29;20029;-74
2023/05/30 03:15:21;;;;;;;12.43;6.53;;;;;;;16.90;100.00;100228.25;4897081;29;20028;-69
2023/05/30 03:17:47;;;;;;;9.98;6.85;;;;;;;16.85;100.00;100229.06;4896791;29;20067;-71
2023/05/30 03:20:13;;;;;;;11.18;6.20;;;;;;;16.68;100.00;100227.19;4895332;29;20032;-72
2023/05/30 03:22:41;;;;;;;10.95;6.68;;;;;;;16.52;100.00;100209.69;4877931;29;20044;-72
2023/05/30 03:25:08;;;;;;;11.52;6.03;;;;;;;16.58;100.00;100241.88;4877935;29;20441;-72
2023/05/30 03:27:34;;;;;;;11.80;6.25;;;;;;;16.57;100.00;100234.91;4867895;29;20096;-72
2023/05/30 03:30:02;;;;;;;9.57;7.47;;;;;;;16.48;100.00;100214.88;4878243;29;20365;-69
2023/05/30 03:32:28;;;;;;;10.15;6.78;;;;;;;16.47;100.00;100228.78;4878033;29;20915;-72
2023/05/30 03:34:54;;;;;;;12.55;6.72;;;;;;;16.39;100.00;100206.13;4877711;29;20032;-69
2023/05/30 03:37:20;;;;;;;12.57;7.32;;;;;;;16.17;100.00;100170.34;4877723;29;20025;-73
2023/05/30 03:39:46;;;;;;;12.10;6.40;;;;;;;16.39;100.00;100225.22;4877295;29;20080;-72
2023/05/30 03:42:12;;;;;;;14.27;7.22;;;;;;;16.57;100.00;100249.69;4878143;29;20067;-71
2023/05/30 03:44:37;;;;;;;13.10;7.20;;;;;;;16.64;100.00;100254.13;4877789;29;20056;-71
2023/05/30 03:47:04;;;;;;;12.57;7.30;;;;;;;16.74;100.00;100248.09;4877642;29;20043;-72
2023/05/30 03:49:30;;;;;;;10.02;7.40;;;;;;;16.88;100.00;100253.41;4877645;29;20044;-72
2023/05/30 03:51:55;;;;;;;11.38;6.93;;;;;;;16.92;100.00;100243.94;4875736;29;20453;-70
2023/05/30 03:54:21;;;;;;;16.73;8.02;;;;;;;17.12;100.00;100263.22;4877300;29;20040;-70
2023/05/30 03:56:47;;;;;;;14.45;7.65;;;;;;;17.09;100.00;100262.31;4880685;29;20443;-71
2023/05/30 03:59:15;;;;;;;14.63;7.63;;;;;;;17.08;100.00;100263.16;4896021;29;20136;-71
2023/05/30 04:01:41;;;;;;;12.70;6.95;;;;;;;17.06;100.00;100270.09;4893296;29;20224;-71
2023/05/30 04:04:06;;;;;;;15.80;7.63;;;;;;;17.04;100.00;100258.81;4878600;29;20140;-74
2023/05/30 04:06:34;;;;;;;19.00;7.07;;;;;;;17.14;100.00;100266.69;4876722;29;20021;-69
2023/05/30 04:09:03;;;;;;;10.77;6.75;;;;;;;17.09;100.00;100272.75;4876426;29;20506;-71
2023/05/30 04:11:29;;;;;;;10.55;6.53;;;;;;;17.08;100.00;100268.38;4876169;29;20037;-71
2023/05/30 04:13:55;;;;;;;12.45;6.93;;;;;;;17.10;100.00;100264.91;4877108;29;20511;-71
2023/05/30 04:16:21;;;;;;;10.75;6.57;;;;;;;17.04;100.00;100272.69;4876957;29;20392;-71
2023/05/30 04:18:47;;;;;;;9.68;6.60;;;;;;;16.92;100.00;100255.25;4877485;29;20053;-71
2023/05/30 04:21:14;;;;;;;11.18;6.78;;;;;;;17.08;100.00;100277.06;4876957;29;20029;-71
2023/05/30 04:23:41;;;;;;;14.13;7.10;;;;;;;17.17;100.00;100275.41;4858840;29;20041;-72
2023/05/30 04:26:09;;;;;;;11.38;6.60;;;;;;;17.28;100.00;100265.91;4876386;29;20033;-71
2023/05/30 04:28:39;;;;;;;11.60;7.07;;;;;;;17.28;100.00;100261.56;4876283;29;20511;-72
2023/05/30 04:31:08;;;;;;;11.45;6.90;;;;;;;17.38;100.00;100285.09;4876540;29;20025;-70
2023/05/30 04:33:35;;;;;;;11.27;7.22;;;;;;;17.38;100.00;100270.31;4882197;29;20048;-72
2023/05/30 04:36:05;;;;;;;12.52;6.85;;;;;;;17.45;100.00;100281.66;4895118;29;20091;-70
2023/05/30 04:38:34;;;;;;;14.32;7.20;;;;;;;17.48;100.00;100276.44;4892472;29;20061;-70
2023/05/30 04:41:02;;;;;;;8.50;6.15;;;;;;;17.61;100.00;100280.88;4876364;29;20029;-71
2023/05/30 04:43:31;;;;;;;9.20;7.10;;;;;;;17.35;100.00;100241.59;4875411;29;20033;-71
2023/05/30 04:46:00;;;;;;;12.32;6.68;;;;;;;17.36;100.00;100253.78;4877363;29;20504;-71
2023/05/30 04:48:27;;;;;;;10.35;6.50;;;;;;;17.57;100.00;100284.34;4876541;29;20120;-69
2023/05/30 04:50:53;;;;;;;10.93;6.57;;;;;;;17.65;100.00;100279.16;4875663;29;20435;-70
2023/05/30 04:53:20;;;;;;;10.57;7.32;;;;;;;17.67;100.00;100273.94;4876558;29;20033;-69
2023/05/30 04:55:46;;;;;;;15.00;7.00;;;;;;;17.67;100.00;100269.59;4876929;29;20088;-69
2023/05/30 04:58:13;;;;;;;16.42;7.20;;;;;;;17.83;100.00;100286.22;4876723;29;20064;-72
2023/05/30 05:00:38;;;;;;;12.65;6.68;;;;;;;17.88;100.00;100288.81;4876048;29;20415;-75
2023/05/30 05:03:05;;;;;;;10.02;6.32;;;;;;;17.56;100.00;100237.38;4876282;29;20033;-70
2023/05/30 05:05:30;;;;;;;15.30;7.45;;;;;;;17.73;100.00;100271.34;4876663;29;20029;-69
2023/05/30 05:07:57;;;;;;;10.85;6.63;;;;;;;17.90;100.00;100300.16;4876633;29;20468;-69
2023/05/30 05:10:23;;;;;;;11.93;6.95;;;;;;;17.60;100.00;100239.97;4876749;29;20040;-69
2023/05/30 05:12:50;;;;;;;16.00;7.80;;;;;;;17.79;100.00;100269.66;4876865;29;20033;-70
2023/05/30 05:15:15;;;;;;;15.63;7.30;;;;;;;18.16;100.00;100308.13;4876953;29;20693;-70
2023/05/30 05:17:41;;;;;;;11.90;6.63;;;;;;;18.24;100.00;100302.91;4876182;29;20049;-70
2023/05/30 05:20:07;;;;;;;9.95;6.35;;;;;;;18.17;100.00;100296.81;4876593;29;20051;-76
2023/05/30 05:22:33;;;;;;;9.45;6.03;;;;;;;18.29;100.00;100324.69;4876588;29;20025;-69
2023/05/30 05:24:58;;;;;;;7.43;6.43;;;;;;;18.31;100.00;100319.50;4876582;29;20043;-70
2023/05/30 05:27:26;;;;;;;7.88;6.10;;;;;;;18.16;100.00;100283.75;4876643;29;20033;-69
2023/05/30 05:29:51;;;;;;;11.80;6.90;;;;;;;18.43;100.00;100327.38;4872964;29;22012;-74
2023/05/30 05:32:17;;;;;;;9.93;6.80;;;;;;;18.54;100.00;100327.38;4873849;29;20037;-70
2023/05/30 05:34:42;;;;;;;10.05;5.97;;;;;;;18.57;100.00;100324.78;4870214;29;20127;-72
2023/05/30 05:37:08;;;;;;;12.05;6.60;;;;;;;18.57;100.00;100327.41;4861766;29;20060;-74
2023/05/30 05:39:34;;;;;;;10.18;6.20;;;;;;;18.51;100.00;100328.25;4880137;29;20420;-70
2023/05/30 05:42:01;;;;;;;8.70;5.93;;;;;;;18.63;100.00;100330.03;4879484;29;20080;-70
2023/05/30 05:44:27;;;;;;;8.07;5.40;;;;;;;18.32;100.00;100263.72;4879167;29;20035;-69
2023/05/30 05:46:53;;;;;;;9.63;5.63;;;;;;;18.73;100.00;100334.38;4877181;29;20097;-72
2023/05/30 05:49:20;;;;;;;9.90;6.03;;;;;;;18.72;100.00;100327.41;4857740;29;20041;-71
2023/05/30 05:51:45;;;;;;;8.32;5.43;;;;;;;18.70;100.00;100323.91;4858296;29;20045;-69
2023/05/30 05:54:11;;;;;;;9.27;5.13;;;;;;;18.78;100.00;100329.16;4858206;29;20870;-71
2023/05/30 05:56:36;;;;;;;8.65;5.50;;;;;;;18.57;100.00;100322.16;4857611;29;20125;-70
2023/05/30 05:59:02;;;;;;;11.82;5.90;;;;;;;18.42;100.00;100291.66;4858251;29;20040;-71
2023/05/30 06:01:28;;;;;;;7.82;5.70;;;;;;;18.53;100.00;100326.50;4857665;29;20536;-68
2023/05/30 06:03:53;;;;;;;12.23;6.13;;;;;;;18.61;100.00;100334.38;4857991;29;20049;-70
2023/05/30 06:06:18;;;;;;;9.32;5.53;;;;;;;18.57;100.00;100316.94;4836448;29;20034;-67
2023/05/30 06:08:46;;;;;;;11.90;6.30;;;;;;;18.57;100.00;100325.66;4858089;29;20041;-67
2023/05/30 06:11:12;;;;;;;7.50;5.50;;;;;;;18.66;100.00;100332.63;4858365;29;20136;-69
2023/05/30 06:13:37;;;;;;;10.45;5.32;;;;;;;18.71;100.00;100330.88;4857576;29;20124;-70
2023/05/30 06:16:03;;;;;;;9.02;5.65;;;;;;;18.80;100.00;100337.88;4857353;29;20699;-67
2023/05/30 06:18:28;;;;;;;9.15;5.13;;;;;;;18.77;100.00;100319.56;4857671;29;20041;-67
2023/05/30 06:20:54;;;;;;;7.18;5.03;;;;;;;19.02;100.00;100348.41;4857879;29;20398;-69
2023/05/30 06:23:21;;;;;;;6.25;4.22;;;;;;;19.02;100.00;100348.41;4857827;29;20124;-71
2023/05/30 06:25:46;;;;;;;5.97;4.32;;;;;;;19.13;100.00;100351.00;4857329;29;20041;-68
2023/05/30 06:28:12;;;;;;;6.45;4.85;;;;;;;19.19;100.00;100354.50;4878823;29;20040;-71
2023/05/30 06:30:37;;;;;;;6.35;3.75;;;;;;;19.09;100.00;100352.78;4876501;29;20112;-70
2023/05/30 06:33:03;;;;;;;5.60;4.13;;;;;;;19.20;100.00;100361.47;4861890;29;20034;-72
2023/05/30 06:35:28;;;;;;;6.18;4.22;;;;;;;19.28;100.00;100361.47;4871920;29;20128;-68
2023/05/30 06:37:54;;;;;;;6.07;3.60;;;;;;;19.25;100.00;100348.38;4880915;29;20036;-67
2023/05/30 06:40:20;;;;;;;5.45;3.85;;;;;;;19.35;100.00;100352.75;4879054;29;20535;-68
2023/05/30 06:42:45;;;;;;;6.97;4.03;;;;;;;19.35;100.00;100339.66;4877237;29;20088;-67
2023/05/30 06:45:12;;;;;;;6.85;3.85;;;;;;;19.52;100.00;100357.09;4877804;29;20025;-72
2023/05/30 06:47:38;;;;;;;5.65;3.80;;;;;;;19.57;100.00;100360.56;4878345;29;20041;-72
2023/05/30 06:50:04;;;;;;;4.78;3.30;;;;;;;19.45;100.00;100339.63;4878072;29;20040;-74
2023/05/30 06:52:29;;;;;;;6.15;3.45;;;;;;;19.47;100.00;100344.00;4878301;29;20040;-71
2023/05/30 06:54:55;;;;;;;4.82;3.38;;;;;;;19.65;100.00;100365.78;4877961;29;20029;-73
2023/05/30 06:57:20;;;;;;;5.22;3.42;;;;;;;19.62;100.00;100348.31;4878323;29;20049;-71
2023/05/30 06:59:46;;;;;;;5.63;3.78;;;;;;;19.84;100.00;100370.13;4876280;29;20033;-68
2023/05/30 07:02:11;;;;;;;4.75;3.20;;;;;;;19.85;100.00;100357.88;4877964;29;20419;-68
2023/05/30 07:04:36;;;;;;;4.63;2.88;;;;;;;19.94;100.00;100370.97;4877853;29;20157;-69
2023/05/30 07:07:02;;;;;;;5.63;3.67;;;;;;;19.99;100.00;100358.72;4876644;29;20483;-69
2023/05/30 07:09:28;;;;;;;5.50;3.20;;;;;;;20.16;100.00;100368.28;4877957;29;20029;-69
2023/05/30 07:11:54;;;;;;;6.00;3.50;;;;;;;20.03;100.00;100346.50;4877809;29;20048;-69
2023/05/30 07:14:19;;;;;;;13.30;4.40;;;;;;;20.12;100.00;100372.66;4877670;29;20120;-71
2023/05/30 07:16:45;;;;;;;6.07;3.85;;;;;;;20.10;100.00;100357.81;4876382;29;20033;-67
2023/05/30 07:19:12;;;;;;;6.35;3.72;;;;;;;20.30;100.00;100373.44;4877452;29;20033;-70
2023/05/30 07:21:38;;;;;;;40.60;8.10;;;;;;;20.15;100.00;100364.78;4877684;29;20033;-71
2023/05/30 07:24:04;;;;;;;649.38;90.32;;;;;;;20.24;100.00;100362.97;4877456;29;20032;-68
2023/05/30 07:26:29;;;;;;;10.68;4.32;;;;;;;20.32;100.00;100377.81;4894751;29;20486;-69
2023/05/30 07:28:56;;;;;;;14.93;5.40;;;;;;;20.24;100.00;100349.88;4896200;29;20028;-72
2023/05/30 07:31:21;;;;;;;25.80;6.63;;;;;;;20.45;100.00;100365.53;4895613;29;20143;-71
2023/05/30 07:33:47;;;;;;;27.73;8.15;;;;;;;20.61;100.00;100382.03;4895836;29;20697;-67
2023/05/30 07:36:12;;;;;;;314.38;46.83;;;;;;;20.55;100.00;100384.69;4895821;29;20028;-67
2023/05/30 07:38:37;;;;;;;31.63;18.50;;;;;;;20.44;100.00;100369.00;4895975;29;20043;-69
2023/05/30 07:41:03;;;;;;;8.27;6.10;;;;;;;20.36;100.00;100383.91;4896264;29;20039;-70
2023/05/30 07:43:28;;;;;;;19.00;13.43;;;;;;;20.14;100.00;100352.56;4895548;29;20064;-70
2023/05/30 07:45:54;;;;;;;65.45;32.13;;;;;;;19.72;100.00;100270.59;4895517;29;20056;-70
2023/05/30 07:48:19;;;;;;;152.02;124.25;;;;;;;20.21;100.00;100361.25;4895371;29;20021;-71
2023/05/30 07:50:45;;;;;;;21.17;17.65;;;;;;;20.50;100.00;100389.09;4895378;29;20418;-70
2023/05/30 07:53:10;;;;;;;6.70;5.25;;;;;;;20.15;100.00;100315.00;4895407;29;20028;-68
2023/05/30 07:55:36;;;;;;;5.93;3.85;;;;;;;20.54;100.00;100364.59;4895575;29;20035;-68
2023/05/30 07:58:01;;;;;;;7.97;4.30;;;;;;;20.62;100.00;100380.28;4894904;29;20048;-69
2023/05/30 08:00:27;;;;;;;6.90;3.80;;;;;;;20.50;100.00;100345.38;4895494;29;20518;-69
2023/05/30 08:02:52;;;;;;;5.70;3.72;;;;;;;20.72;100.00;100376.75;4895436;29;20024;-72
2023/05/30 08:05:17;;;;;;;7.90;4.40;;;;;;;20.79;100.00;100388.09;4895374;29;20506;-67
2023/05/30 08:07:43;;;;;;;8.07;4.70;;;;;;;20.59;100.00;100357.56;4894885;29;20033;-69
2023/05/30 08:10:08;;;;;;;5.60;3.60;;;;;;;20.79;100.00;100386.31;4895115;29;20534;-67
2023/05/30 08:12:34;;;;;;;6.13;3.72;;;;;;;20.74;100.00;100392.50;4894602;29;20068;-69
2023/05/30 08:14:59;;;;;;;6.60;3.60;;;;;;;20.62;100.00;100375.03;4895216;29;20032;-68
2023/05/30 08:17:26;;;;;;;6.13;4.05;;;;;;;20.63;100.00;100387.28;4895494;29;20032;-67
2023/05/30 08:19:53;;;;;;;4.70;3.60;;;;;;;20.73;100.00;100393.38;4895508;29;20107;-73
2023/05/30 08:22:23;;;;;;;6.40;4.10;;;;;;;20.83;100.00;100395.91;4895257;29;20036;-69
2023/05/30 08:24:50;;;;;;;6.97;3.90;;;;;;;20.71;100.00;100372.41;4894657;29;20096;-68
2023/05/30 08:27:20;;;;;;;6.38;4.00;;;;;;;20.68;100.00;100380.25;4894021;29;20400;-72
2023/05/30 08:29:47;;;;;;;5.38;3.88;;;;;;;20.83;100.00;100395.03;4894118;29;20608;-70
2023/05/30 08:32:14;;;;;;;8.10;4.50;;;;;;;20.59;100.00;100346.22;4895153;29;20109;-72
2023/05/30 08:34:39;;;;;;;7.07;3.92;;;;;;;20.96;100.00;100401.06;4894776;29;20156;-68
2023/05/30 08:37:05;;;;;;;5.13;4.00;;;;;;;20.83;100.00;100369.66;4895205;29;20115;-73
2023/05/30 08:39:33;;;;;;;5.82;4.10;;;;;;;21.09;100.00;100396.63;4893908;29;20060;-67
2023/05/30 08:41:58;;;;;;;8.48;5.18;;;;;;;21.09;100.00;100394.84;4894916;29;20033;-70
2023/05/30 08:44:24;;;;;;;6.65;4.35;;;;;;;21.20;100.00;100394.78;4895145;29;20029;-67
2023/05/30 08:46:50;;;;;;;10.23;4.40;;;;;;;21.17;100.00;100387.81;4892024;29;20037;-67
2023/05/30 08:49:21;;;;;;;6.32;4.30;;;;;;;21.04;100.00;100401.91;4887484;29;20036;-68
2023/05/30 08:51:48;;;;;;;7.28;3.70;;;;;;;21.03;100.00;100409.78;4895220;29;20032;-67
2023/05/30 08:54:22;;;;;;;7.03;4.30;;;;;;;20.89;100.00;100388.91;4895018;29;20033;-68
2023/05/30 08:57:26;;;;;;;6.90;4.32;;;;;;;21.03;100.00;100409.78;4894656;29;20077;-67
2023/05/30 08:59:53;;;;;;;7.43;4.53;;;;;;;21.08;100.00;100403.59;4800485;29;20509;-68
2023/05/30 09:02:20;;;;;;;6.45;4.13;;;;;;;21.03;100.00;100408.03;4800229;29;20050;-71
2023/05/30 09:04:47;;;;;;;5.82;4.82;;;;;;;21.12;100.00;100407.09;4796447;29;20043;-70
2023/05/30 09:07:14;;;;;;;7.85;4.93;;;;;;;21.00;100.00;100356.44;4807766;29;20031;-66
2023/05/30 09:09:41;;;;;;;5.90;4.18;;;;;;;21.33;100.00;100391.19;4805686;29;20135;-70
2023/05/30 09:12:08;;;;;;;8.68;4.68;;;;;;;21.26;100.00;100386.84;4801896;29;20042;-71
2023/05/30 09:14:34;;;;;;;6.35;4.40;;;;;;;21.04;100.00;100378.28;4821943;29;20072;-69
2023/05/30 09:16:59;;;;;;;10.02;4.30;;;;;;;21.24;100.00;100417.50;4821864;29;20497;-70
2023/05/30 09:19:26;;;;;;;6.63;4.22;;;;;;;21.19;100.00;100403.53;4821564;29;20102;-69
2023/05/30 09:21:52;;;;;;;7.97;4.25;;;;;;;20.63;100.00;100324.31;4821944;29;20597;-70
2023/05/30 09:24:18;;;;;;;9.82;4.97;;;;;;;21.10;100.00;100404.47;4822052;29;20086;-67
2023/05/30 09:26:58;;;;;;;8.38;4.80;;;;;;;21.07;100.00;100403.63;4806667;29;20524;-71
2023/05/30 09:29:25;;;;;;;7.57;4.60;;;;;;;21.23;100.00;100405.25;4821053;29;20513;-72
2023/05/30 09:31:51;;;;;;;6.75;4.47;;;;;;;21.29;100.00;100407.81;4820838;29;20525;-67
2023/05/30 09:34:18;;;;;;;6.43;4.68;;;;;;;20.96;100.00;100340.72;4823144;29;20042;-67
2023/05/30 09:36:55;;;;;;;7.25;5.20;;;;;;;21.36;100.00;100397.25;4875103;29;20538;-68
2023/05/30 09:39:21;;;;;;;7.22;5.00;;;;;;;21.44;100.00;100398.09;4895227;29;20036;-69
2023/05/30 09:41:46;;;;;;;7.70;4.68;;;;;;;20.80;100.00;100280.50;4849362;29;20048;-70
2023/05/30 09:44:12;;;;;;;8.48;4.82;;;;;;;21.59;100.00;100391.84;4897361;29;20386;-68
2023/05/30 09:46:38;;;;;;;7.55;4.60;;;;;;;21.64;100.00;100390.03;4897668;29;20029;-70
2023/05/30 09:49:14;;;;;;;7.03;5.00;;;;;;;21.73;100.00;100397.84;4894457;29;20064;-68
2023/05/30 09:51:40;;;;;;;7.15;4.35;;;;;;;21.85;100.00;100388.09;4897252;29;20073;-70
2023/05/30 09:54:06;;;;;;;7.18;5.10;;;;;;;21.95;100.00;100382.69;4897443;29;20068;-69
2023/05/30 09:56:36;;;;;;;6.70;4.18;;;;;;;21.42;100.00;100269.41;4879894;29;20103;-71
2023/05/30 09:59:10;;;;;;;7.05;4.53;;;;;;;21.83;100.00;100342.53;4897439;29;20103;-69
2023/05/30 10:01:55;;;;;;;10.50;4.13;;;;;;;22.12;100.00;100384.28;4897680;29;20029;-68
2023/05/30 10:04:23;;;;;;;11.25;4.53;;;;;;;22.17;100.00;100381.56;4886661;29;20136;-70
2023/05/30 10:10:15;;;;;;;4.93;3.95;;;;;;;22.03;100.00;100368.59;5110261;23;20437;-72
2023/05/30 10:12:50;;;;;;;6.57;4.43;;;;;;;22.19;100.00;100366.66;4917057;29;20063;-71
2023/05/30 10:15:16;;;;;;;8.38;5.25;;;;;;;22.36;100.00;100375.19;4914983;29;20578;-70
2023/05/30 10:17:58;;;;;;;9.05;4.85;;;;;;;22.52;100.00;100383.78;4913095;29;20295;-71
2023/05/30 10:20:26;;;;;;;7.95;5.03;;;;;;;22.50;100.00;100379.44;4911069;29;20043;-71
2023/05/30 10:22:53;;;;;;;8.07;5.10;;;;;;;22.54;100.00;100370.59;4916129;29;20034;-71
2023/05/30 10:25:20;;;;;;;9.05;5.25;;;;;;;22.76;100.00;100385.16;4915822;29;20020;-70
2023/05/30 10:27:51;;;;;;;10.38;4.90;;;;;;;22.66;100.00;100367.78;4915285;29;20052;-71
2023/05/30 10:30:23;;;;;;;9.43;4.68;;;;;;;22.86;100.00;100385.03;4915917;29;20518;-72
2023/05/30 10:32:58;;;;;;;9.98;4.47;;;;;;;22.90;100.00;100392.00;4916160;29;20056;-70
2023/05/30 10:35:26;;;;;;;7.95;4.80;;;;;;;22.94;100.00;100388.41;4916426;29;20502;-72
2023/05/30 10:37:52;;;;;;;7.05;4.65;;;;;;;22.72;100.00;100340.53;4916496;29;20506;-68
2023/05/30 10:40:36;;;;;;;8.48;4.28;;;;;;;22.67;100.00;100322.16;4916130;29;20036;-68
2023/05/30 10:43:22;;;;;;;7.53;4.70;;;;;;;22.70;100.00;100305.47;4916391;29;20028;-73
2023/05/30 10:46:06;;;;;;;10.98;5.00;;;;;;;23.17;100.00;100377.56;4905728;29;20526;-69
2023/05/30 10:48:46;;;;;;;9.18;4.60;;;;;;;23.19;100.00;100374.88;4898979;29;20036;-71
2023/05/30 10:51:13;;;;;;;7.15;4.57;;;;;;;23.27;100.00;100371.22;4916012;29;20450;-69
2023/05/30 10:53:44;;;;;;;8.00;5.32;;;;;;;23.28;100.00;100353.69;4916221;29;20578;-74
2023/05/30 10:56:31;;;;;;;8.15;5.10;;;;;;;23.47;100.00;100379.69;4911765;29;20112;-68
2023/05/30 10:58:57;;;;;;;6.78;4.72;;;;;;;23.39;100.00;100364.00;4906457;29;20059;-71
2023/05/30 11:01:32;;;;;;;7.80;5.30;;;;;;;23.39;100.00;100367.53;4915415;29;20483;-71
2023/05/30 11:04:04;;;;;;;7.15;5.07;;;;;;;23.36;100.00;100362.28;4915801;29;20059;-70
2023/05/30 11:06:38;;;;;;;6.90;4.95;;;;;;;23.20;100.00;100334.50;4893191;29;20143;-73
2023/05/30 11:09:08;;;;;;;7.57;4.47;;;;;;;23.37;100.00;100361.41;4915440;29;20056;-68
2023/05/30 11:11:37;;;;;;;;;;;;;;;23.47;100.00;100355.97;4915864;29;20070;-72
2023/05/30 11:14:05;;;;;;;6.53;5.35;;;;;;;23.42;100.00;100350.78;4909947;29;19919;-72
2023/05/30 11:16:31;;;;;;;7.72;4.93;;;;;;;23.35;100.00;100341.25;4906680;29;20542;-73
2023/05/30 11:19:09;;;;;;;6.15;4.70;;;;;;;23.56;100.00;100332.97;4912450;29;20032;-72